الصفحة الرئيسية
METAR-TAF:

METAR-TAF

مطار :

مطار الملك عبد العزيز الدولي

جدة, السعودية

دائرة عرض: 21-42N, خط طول: 039-11E, ارتفاع: 15 متر

مراقبة الطقس الحالي

تاريخ ووقت الإصدار 13 دقيقة قبل الساعة 08:00UTC
ريح 4 عقدة من الشمال/الشمال الغربي
درجة الحرارة 39°درجة مئوية
الرطوبة 28%
ضغط 1008 hPa
الرؤية 10 كم أو أكثر
الغيوم لا تقل 1500 م ولا وجود لمزنة ركامية السحاب الأسود

METAR: OEJN 220800Z 34004KT CAVOK 39/17 Q1008 NOSIG

زمن: 11:13 (08:13 UTC)

توقعات

تاريخ ووقت الإصدار 3ساعات و 13 دقيقة قبل الساعة 05:00UTC
التوقعات صالحة من22 الساعة 06 UTC إلى 23 الساعة 12 UTC
ريح 15 عقدة من الشمال الغربي
الرؤية 10 كم أو أكثر
غيوم قليلة على ارتفاع 4000 قدم
غيوم متفرقة على ارتفاع 10000 قدم
أصبح
من 22 الساعة 17 UTC إلى 22 الساعة 19 UTC
ريح 8 عقدة من الشمال

TAF: OEJN 220500Z 2206/2312 31015KT 9999 FEW040 SCT100 BECMG 2217/2219 01008KT

أرصاد الطقس والتوقعات من أكثر من 4000 مطار (تقارير الطقس للمطار METAR والتنبؤ بالطقس بالمطارTAF).

المحطات المتاحة هي النقط الصفراء والحمراء على الخريطة.

حرك المؤشر فوق النقطة لمعرفة اسم المحطة.

ثم انقر لمعرفة أرصاد وتوقعات الطقس.

لتغيير الخارطة: اضغط على الأزرار الخضراء مع رمز الصليب الأسود للتكبير. على الزر الأخضر مع شرطة للتصغير، أو على الأسهم الخضراء للخرائط المجاورة.


METAR-TAF: